sensor_id;sensor_type;location;lat;lon;timestamp;pressure;altitude;pressure_sealevel;temperature;humidity
41690;BME280;27372;42.658;23.256;2023-07-20T00:01:34;93547.50;;;22.79;60.36
41690;BME280;27372;42.658;23.256;2023-07-20T00:03:59;93525.91;;;22.93;58.03
41690;BME280;27372;42.658;23.256;2023-07-20T00:06:25;93537.31;;;23.20;56.90
41690;BME280;27372;42.658;23.256;2023-07-20T00:08:55;93519.53;;;23.24;57.05
41690;BME280;27372;42.658;23.256;2023-07-20T00:11:25;93515.56;;;23.22;57.83
41690;BME280;27372;42.658;23.256;2023-07-20T00:13:51;93508.06;;;23.45;57.12
41690;BME280;27372;42.658;23.256;2023-07-20T00:16:16;93514.09;;;23.63;56.67
41690;BME280;27372;42.658;23.256;2023-07-20T00:18:41;93523.41;;;23.87;56.84
41690;BME280;27372;42.658;23.256;2023-07-20T00:21:16;93529.53;;;23.87;58.11
41690;BME280;27372;42.658;23.256;2023-07-20T00:23:41;93537.28;;;23.89;58.29
41690;BME280;27372;42.658;23.256;2023-07-20T00:26:09;93550.59;;;24.07;58.40
41690;BME280;27372;42.658;23.256;2023-07-20T00:28:36;93547.28;;;23.80;58.89
41690;BME280;27372;42.658;23.256;2023-07-20T00:31:02;93564.16;;;23.41;60.02
41690;BME280;27372;42.658;23.256;2023-07-20T00:33:28;93554.50;;;23.58;58.22
41690;BME280;27372;42.658;23.256;2023-07-20T00:35:53;93559.59;;;23.42;59.45
41690;BME280;27372;42.658;23.256;2023-07-20T00:38:19;93555.97;;;23.47;59.61
41690;BME280;27372;42.658;23.256;2023-07-20T00:40:44;93558.53;;;23.64;59.77
41690;BME280;27372;42.658;23.256;2023-07-20T00:43:10;93545.09;;;23.73;59.19
41690;BME280;27372;42.658;23.256;2023-07-20T00:45:36;93544.72;;;23.83;58.67
41690;BME280;27372;42.658;23.256;2023-07-20T00:48:02;93541.81;;;23.97;58.15
41690;BME280;27372;42.658;23.256;2023-07-20T00:50:29;93534.38;;;24.03;58.63
41690;BME280;27372;42.658;23.256;2023-07-20T00:53:19;93528.88;;;24.21;58.15
41690;BME280;27372;42.658;23.256;2023-07-20T00:55:51;93524.09;;;24.26;57.39
41690;BME280;27372;42.658;23.256;2023-07-20T00:58:17;93537.09;;;24.37;58.18
41690;BME280;27372;42.658;23.256;2023-07-20T01:00:42;93535.06;;;24.33;59.35
41690;BME280;27372;42.658;23.256;2023-07-20T01:03:08;93530.38;;;24.09;60.29
41690;BME280;27372;42.658;23.256;2023-07-20T01:05:54;93526.59;;;23.80;60.85
41690;BME280;27372;42.658;23.256;2023-07-20T01:08:33;93517.63;;;23.55;61.03
41690;BME280;27372;42.658;23.256;2023-07-20T01:11:23;93524.94;;;23.67;59.53
41690;BME280;27372;42.658;23.256;2023-07-20T01:13:53;93527.91;;;23.74;59.14
41690;BME280;27372;42.658;23.256;2023-07-20T01:16:19;93529.69;;;23.91;58.78
41690;BME280;27372;42.658;23.256;2023-07-20T01:18:46;93525.53;;;24.02;58.78
41690;BME280;27372;42.658;23.256;2023-07-20T01:21:18;93517.75;;;24.10;58.64
41690;BME280;27372;42.658;23.256;2023-07-20T01:31:44;93539.59;;;23.99;61.60
41690;BME280;27372;42.658;23.256;2023-07-20T01:34:11;93540.88;;;23.93;63.26
41690;BME280;27372;42.658;23.256;2023-07-20T01:36:47;93532.97;;;23.97;64.82
41690;BME280;27372;42.658;23.256;2023-07-20T01:39:19;93547.34;;;23.92;64.97
41690;BME280;27372;42.658;23.256;2023-07-20T01:41:48;93540.38;;;23.70;66.12
41690;BME280;27372;42.658;23.256;2023-07-20T01:44:13;93534.00;;;23.23;66.89
41690;BME280;27372;42.658;23.256;2023-07-20T01:46:39;93525.97;;;23.15;67.16
41690;BME280;27372;42.658;23.256;2023-07-20T01:49:04;93521.88;;;23.26;66.76
41690;BME280;27372;42.658;23.256;2023-07-20T01:51:30;93527.50;;;23.33;66.76
41690;BME280;27372;42.658;23.256;2023-07-20T01:53:55;93511.56;;;23.37;66.04
41690;BME280;27372;42.658;23.256;2023-07-20T01:56:21;93518.00;;;23.45;65.45
41690;BME280;27372;42.658;23.256;2023-07-20T01:59:11;93526.28;;;23.52;65.86
41690;BME280;27372;42.658;23.256;2023-07-20T02:01:39;93527.88;;;23.53;67.21
41690;BME280;27372;42.658;23.256;2023-07-20T02:04:09;93514.34;;;23.49;67.76
41690;BME280;27372;42.658;23.256;2023-07-20T02:06:34;93519.97;;;23.56;67.33
41690;BME280;27372;42.658;23.256;2023-07-20T02:09:03;93515.41;;;23.57;67.12
41690;BME280;27372;42.658;23.256;2023-07-20T02:11:28;93516.19;;;23.57;67.52
41690;BME280;27372;42.658;23.256;2023-07-20T02:17:04;93517.41;;;23.30;68.12
41690;BME280;27372;42.658;23.256;2023-07-20T02:19:30;93523.56;;;22.83;69.48
41690;BME280;27372;42.658;23.256;2023-07-20T02:21:56;93520.91;;;22.83;69.98
41690;BME280;27372;42.658;23.256;2023-07-20T02:24:21;93520.06;;;22.91;70.36
41690;BME280;27372;42.658;23.256;2023-07-20T02:26:47;93521.16;;;22.99;70.55
41690;BME280;27372;42.658;23.256;2023-07-20T02:29:12;93511.56;;;22.89;70.63
41690;BME280;27372;42.658;23.256;2023-07-20T02:31:38;93525.91;;;22.85;71.97
41690;BME280;27372;42.658;23.256;2023-07-20T02:34:05;93513.47;;;22.89;71.67
41690;BME280;27372;42.658;23.256;2023-07-20T02:36:31;93512.47;;;23.02;71.54
41690;BME280;27372;42.658;23.256;2023-07-20T02:38:58;93506.66;;;23.00;71.49
41690;BME280;27372;42.658;23.256;2023-07-20T02:41:23;93507.09;;;23.11;71.38
41690;BME280;27372;42.658;23.256;2023-07-20T02:43:49;93501.59;;;23.07;71.14
41690;BME280;27372;42.658;23.256;2023-07-20T02:46:17;93488.47;;;22.76;71.94
41690;BME280;27372;42.658;23.256;2023-07-20T02:48:42;93489.94;;;22.56;73.24
41690;BME280;27372;42.658;23.256;2023-07-20T02:51:11;93485.84;;;22.67;73.03
41690;BME280;27372;42.658;23.256;2023-07-20T02:53:39;93485.97;;;22.71;72.48
41690;BME280;27372;42.658;23.256;2023-07-20T02:56:05;93490.38;;;22.75;72.83
41690;BME280;27372;42.658;23.256;2023-07-20T02:58:41;93500.88;;;22.80;72.88
41690;BME280;27372;42.658;23.256;2023-07-20T03:01:11;93499.78;;;22.82;72.80
41690;BME280;27372;42.658;23.256;2023-07-20T03:03:37;93488.50;;;22.67;72.54
41690;BME280;27372;42.658;23.256;2023-07-20T03:06:03;93498.75;;;22.39;72.28
41690;BME280;27372;42.658;23.256;2023-07-20T03:08:49;93496.91;;;22.13;73.11
41690;BME280;27372;42.658;23.256;2023-07-20T03:11:17;93479.59;;;21.93;74.48
41690;BME280;27372;42.658;23.256;2023-07-20T03:13:44;93485.44;;;21.95;75.15
41690;BME280;27372;42.658;23.256;2023-07-20T03:16:18;93509.16;;;22.23;74.43
41690;BME280;27372;42.658;23.256;2023-07-20T03:18:44;93504.91;;;22.22;73.95
41690;BME280;27372;42.658;23.256;2023-07-20T03:21:10;93515.00;;;21.98;73.49
41690;BME280;27372;42.658;23.256;2023-07-20T03:23:39;93513.38;;;21.71;74.77
41690;BME280;27372;42.658;23.256;2023-07-20T03:26:05;93505.31;;;21.53;76.22
41690;BME280;27372;42.658;23.256;2023-07-20T03:28:36;93511.59;;;21.49;77.17
41690;BME280;27372;42.658;23.256;2023-07-20T03:31:01;93515.19;;;21.53;76.05
41690;BME280;27372;42.658;23.256;2023-07-20T03:33:29;93503.59;;;21.57;76.20
41690;BME280;27372;42.658;23.256;2023-07-20T03:35:58;93499.81;;;21.50;77.23
41690;BME280;27372;42.658;23.256;2023-07-20T03:38:24;93510.47;;;21.41;77.78
41690;BME280;27372;42.658;23.256;2023-07-20T03:40:56;93502.47;;;21.41;76.66
41690;BME280;27372;42.658;23.256;2023-07-20T03:43:25;93517.63;;;21.72;75.24
41690;BME280;27372;42.658;23.256;2023-07-20T03:45:52;93504.59;;;21.79;74.09
41690;BME280;27372;42.658;23.256;2023-07-20T03:48:20;93508.38;;;21.96;74.52
41690;BME280;27372;42.658;23.256;2023-07-20T03:50:47;93523.47;;;22.09;73.64
41690;BME280;27372;42.658;23.256;2023-07-20T03:53:13;93524.28;;;22.10;74.62
41690;BME280;27372;42.658;23.256;2023-07-20T03:55:39;93519.56;;;22.15;74.46
41690;BME280;27372;42.658;23.256;2023-07-20T03:58:08;93515.78;;;22.16;73.55
41690;BME280;27372;42.658;23.256;2023-07-20T04:00:34;93533.22;;;22.31;73.13
41690;BME280;27372;42.658;23.256;2023-07-20T04:03:00;93530.56;;;22.40;73.16
41690;BME280;27372;42.658;23.256;2023-07-20T04:05:26;93518.59;;;22.38;73.60
41690;BME280;27372;42.658;23.256;2023-07-20T04:07:51;93512.00;;;22.17;73.53
41690;BME280;27372;42.658;23.256;2023-07-20T04:10:18;93501.47;;;22.12;74.31
41690;BME280;27372;42.658;23.256;2023-07-20T04:12:46;93502.25;;;22.30;74.15
41690;BME280;27372;42.658;23.256;2023-07-20T04:15:15;93499.88;;;22.46;73.72
41690;BME280;27372;42.658;23.256;2023-07-20T04:17:44;93499.09;;;22.46;74.24
41690;BME280;27372;42.658;23.256;2023-07-20T04:20:12;93495.47;;;22.33;74.05
41690;BME280;27372;42.658;23.256;2023-07-20T04:22:38;93491.38;;;22.44;73.50
41690;BME280;27372;42.658;23.256;2023-07-20T04:25:04;93502.53;;;22.64;73.09
41690;BME280;27372;42.658;23.256;2023-07-20T04:27:30;93499.38;;;22.62;73.81
41690;BME280;27372;42.658;23.256;2023-07-20T04:29:55;93493.53;;;22.60;74.58
41690;BME280;27372;42.658;23.256;2023-07-20T04:32:21;93497.19;;;22.55;74.92
41690;BME280;27372;42.658;23.256;2023-07-20T04:34:48;93489.66;;;22.48;74.51
41690;BME280;27372;42.658;23.256;2023-07-20T04:37:14;93484.63;;;22.38;73.50
41690;BME280;27372;42.658;23.256;2023-07-20T04:39:39;93479.72;;;22.49;73.40
41690;BME280;27372;42.658;23.256;2023-07-20T04:42:05;93487.44;;;22.51;73.33
41690;BME280;27372;42.658;23.256;2023-07-20T04:44:30;93490.44;;;22.58;73.44
41690;BME280;27372;42.658;23.256;2023-07-20T04:46:55;93489.28;;;22.59;73.09
41690;BME280;27372;42.658;23.256;2023-07-20T04:49:21;93491.31;;;22.71;72.67
41690;BME280;27372;42.658;23.256;2023-07-20T04:51:49;93486.00;;;22.62;72.06
41690;BME280;27372;42.658;23.256;2023-07-20T04:54:14;93492.41;;;22.78;71.82
41690;BME280;27372;42.658;23.256;2023-07-20T04:56:41;93484.47;;;22.91;71.07
41690;BME280;27372;42.658;23.256;2023-07-20T04:59:07;93473.13;;;22.94;71.59
41690;BME280;27372;42.658;23.256;2023-07-20T05:01:32;93490.19;;;22.80;72.23
41690;BME280;27372;42.658;23.256;2023-07-20T05:04:00;93493.13;;;22.96;71.63
41690;BME280;27372;42.658;23.256;2023-07-20T05:06:25;93490.22;;;23.10;70.88
41690;BME280;27372;42.658;23.256;2023-07-20T05:08:51;93486.72;;;23.27;70.44
41690;BME280;27372;42.658;23.256;2023-07-20T05:11:16;93478.78;;;23.40;70.30
41690;BME280;27372;42.658;23.256;2023-07-20T05:13:42;93468.91;;;23.32;69.89
41690;BME280;27372;42.658;23.256;2023-07-20T05:16:07;93487.69;;;23.53;68.96
41690;BME280;27372;42.658;23.256;2023-07-20T05:18:33;93493.31;;;23.60;69.19
41690;BME280;27372;42.658;23.256;2023-07-20T05:21:06;93499.13;;;24.13;82.57
41690;BME280;27372;42.658;23.256;2023-07-20T05:23:35;93494.56;;;24.93;72.68
41690;BME280;27372;42.658;23.256;2023-07-20T05:26:01;93502.00;;;25.71;69.06
41690;BME280;27372;42.658;23.256;2023-07-20T10:21:27;93522.28;;;28.46;43.28
41690;BME280;27372;42.658;23.256;2023-07-20T10:23:55;93521.97;;;28.90;43.70
41690;BME280;27372;42.658;23.256;2023-07-20T10:26:21;93523.47;;;29.11;42.61
41690;BME280;27372;42.658;23.256;2023-07-20T10:28:46;93512.38;;;28.93;43.02
41690;BME280;27372;42.658;23.256;2023-07-20T10:31:14;93507.91;;;28.81;42.74
41690;BME280;27372;42.658;23.256;2023-07-20T10:33:41;93493.16;;;28.55;43.01
41690;BME280;27372;42.658;23.256;2023-07-20T10:36:06;93491.38;;;27.88;43.56
41690;BME280;27372;42.658;23.256;2023-07-20T10:38:55;93528.59;;;27.98;44.15
41690;BME280;27372;42.658;23.256;2023-07-20T10:41:35;93510.88;;;27.46;45.18
41690;BME280;27372;42.658;23.256;2023-07-20T10:44:09;93450.34;;;27.98;44.49
41690;BME280;27372;42.658;23.256;2023-07-20T10:49:10;93441.91;;;28.59;45.51
41690;BME280;27372;42.658;23.256;2023-07-20T10:51:41;93459.22;;;28.58;46.09
41690;BME280;27372;42.658;23.256;2023-07-20T10:56:41;93455.69;;;28.73;46.19
41690;BME280;27372;42.658;23.256;2023-07-20T10:59:18;93431.66;;;29.15;46.07
41690;BME280;27372;42.658;23.256;2023-07-20T11:01:47;93428.41;;;29.55;45.07
41690;BME280;27372;42.658;23.256;2023-07-20T11:04:15;93424.09;;;29.51;44.30
41690;BME280;27372;42.658;23.256;2023-07-20T11:06:45;93426.63;;;29.67;44.05
41690;BME280;27372;42.658;23.256;2023-07-20T11:09:12;93430.75;;;29.87;42.45
41690;BME280;27372;42.658;23.256;2023-07-20T11:11:48;93446.72;;;30.61;43.25
41690;BME280;27372;42.658;23.256;2023-07-20T11:14:24;93438.91;;;30.56;42.48
41690;BME280;27372;42.658;23.256;2023-07-20T11:16:51;93446.50;;;30.77;42.02
41690;BME280;27372;42.658;23.256;2023-07-20T11:21:54;93430.59;;;30.75;39.76
41690;BME280;27372;42.658;23.256;2023-07-20T11:24:20;93423.75;;;30.51;40.91
41690;BME280;27372;42.658;23.256;2023-07-20T11:26:50;93412.56;;;30.94;39.92
41690;BME280;27372;42.658;23.256;2023-07-20T11:29:23;93435.28;;;30.44;40.95
41690;BME280;27372;42.658;23.256;2023-07-20T11:31:50;93423.25;;;30.04;43.07
41690;BME280;27372;42.658;23.256;2023-07-20T11:34:20;93415.66;;;29.86;42.40
41690;BME280;27372;42.658;23.256;2023-07-20T11:36:52;93417.69;;;30.27;41.04
41690;BME280;27372;42.658;23.256;2023-07-20T11:39:19;93408.94;;;30.79;40.20
41690;BME280;27372;42.658;23.256;2023-07-20T11:42:01;93415.38;;;31.05;38.95
41690;BME280;27372;42.658;23.256;2023-07-20T11:44:33;93405.69;;;31.07;39.52
41690;BME280;27372;42.658;23.256;2023-07-20T11:47:09;93383.53;;;31.50;38.16
41690;BME280;27372;42.658;23.256;2023-07-20T11:49:42;93397.81;;;32.17;36.88
41690;BME280;27372;42.658;23.256;2023-07-20T11:52:16;93401.72;;;31.42;37.65
41690;BME280;27372;42.658;23.256;2023-07-20T11:54:45;93386.09;;;31.95;37.26
41690;BME280;27372;42.658;23.256;2023-07-20T11:57:18;93383.94;;;32.44;35.65
41690;BME280;27372;42.658;23.256;2023-07-20T11:59:57;93382.00;;;32.66;35.08
41690;BME280;27372;42.658;23.256;2023-07-20T12:02:27;93380.91;;;33.04;35.75
41690;BME280;27372;42.658;23.256;2023-07-20T12:04:54;93379.72;;;32.97;36.08
41690;BME280;27372;42.658;23.256;2023-07-20T12:07:20;93388.66;;;33.20;34.60
41690;BME280;27372;42.658;23.256;2023-07-20T12:12:32;93367.63;;;33.49;33.38
41690;BME280;27372;42.658;23.256;2023-07-20T12:15:30;93361.00;;;33.65;33.24
41690;BME280;27372;42.658;23.256;2023-07-20T12:17:58;93357.38;;;34.04;32.21
41690;BME280;27372;42.658;23.256;2023-07-20T12:20:35;93357.03;;;34.62;31.52
41690;BME280;27372;42.658;23.256;2023-07-20T12:23:19;93366.00;;;35.11;28.52
41690;BME280;27372;42.658;23.256;2023-07-20T12:25:47;93360.78;;;34.82;28.02
41690;BME280;27372;42.658;23.256;2023-07-20T12:28:18;93368.88;;;34.41;28.60
41690;BME280;27372;42.658;23.256;2023-07-20T12:30:46;93367.66;;;33.20;29.32
41690;BME280;27372;42.658;23.256;2023-07-20T12:33:12;93359.13;;;33.14;28.76
41690;BME280;27372;42.658;23.256;2023-07-20T12:35:40;93372.72;;;33.36;29.36
41690;BME280;27372;42.658;23.256;2023-07-20T12:38:06;93355.28;;;32.90;30.36
41690;BME280;27372;42.658;23.256;2023-07-20T12:40:37;93343.47;;;33.73;29.43
41690;BME280;27372;42.658;23.256;2023-07-20T12:43:08;93338.97;;;34.82;27.27
41690;BME280;27372;42.658;23.256;2023-07-20T12:45:40;93370.63;;;34.69;27.54
41690;BME280;27372;42.658;23.256;2023-07-20T12:48:06;93361.75;;;33.69;28.08
41690;BME280;27372;42.658;23.256;2023-07-20T12:50:34;93353.56;;;33.69;28.91
41690;BME280;27372;42.658;23.256;2023-07-20T12:53:00;93352.13;;;32.56;29.21
41690;BME280;27372;42.658;23.256;2023-07-20T12:55:34;93362.88;;;33.79;28.08
41690;BME280;27372;42.658;23.256;2023-07-20T12:58:02;93336.91;;;33.56;28.16
41690;BME280;27372;42.658;23.256;2023-07-20T13:00:34;93347.72;;;33.78;28.70
41690;BME280;27372;42.658;23.256;2023-07-20T13:03:00;93338.13;;;34.33;27.86
41690;BME280;27372;42.658;23.256;2023-07-20T13:05:27;93347.31;;;34.64;28.33
41690;BME280;27372;42.658;23.256;2023-07-20T13:07:53;93344.59;;;35.55;27.11
41690;BME280;27372;42.658;23.256;2023-07-20T13:10:18;93339.31;;;36.06;26.73
41690;BME280;27372;42.658;23.256;2023-07-20T13:12:44;93336.41;;;36.17;27.55
41690;BME280;27372;42.658;23.256;2023-07-20T13:15:10;93331.47;;;36.91;26.72
41690;BME280;27372;42.658;23.256;2023-07-20T13:17:37;93334.31;;;37.31;26.43
41690;BME280;27372;42.658;23.256;2023-07-20T13:20:04;93342.84;;;37.77;26.26
41690;BME280;27372;42.658;23.256;2023-07-20T13:22:30;93324.38;;;37.41;27.20
41690;BME280;27372;42.658;23.256;2023-07-20T13:24:56;93332.44;;;35.60;28.75
41690;BME280;27372;42.658;23.256;2023-07-20T13:27:27;93331.41;;;37.42;27.35
41690;BME280;27372;42.658;23.256;2023-07-20T13:29:55;93318.84;;;38.05;27.07
41690;BME280;27372;42.658;23.256;2023-07-20T13:32:27;93325.28;;;38.51;26.34
41690;BME280;27372;42.658;23.256;2023-07-20T13:34:52;93315.63;;;38.80;25.62
41690;BME280;27372;42.658;23.256;2023-07-20T13:37:18;93320.94;;;37.77;27.00
41690;BME280;27372;42.658;23.256;2023-07-20T13:39:44;93305.66;;;37.16;26.86
41690;BME280;27372;42.658;23.256;2023-07-20T13:42:11;93320.81;;;37.64;27.15
41690;BME280;27372;42.658;23.256;2023-07-20T13:44:37;93323.84;;;38.27;26.00
41690;BME280;27372;42.658;23.256;2023-07-20T13:47:03;93314.28;;;37.78;26.01
41690;BME280;27372;42.658;23.256;2023-07-20T13:49:32;93311.59;;;37.74;25.93
41690;BME280;27372;42.658;23.256;2023-07-20T13:51:57;93311.13;;;37.59;26.52
41690;BME280;27372;42.658;23.256;2023-07-20T13:54:24;93314.84;;;37.25;26.35
41690;BME280;27372;42.658;23.256;2023-07-20T13:56:49;93310.81;;;37.34;27.06
41690;BME280;27372;42.658;23.256;2023-07-20T13:59:15;93318.28;;;37.53;27.26
41690;BME280;27372;42.658;23.256;2023-07-20T14:01:41;93312.53;;;37.24;28.46
41690;BME280;27372;42.658;23.256;2023-07-20T14:04:06;93308.38;;;37.59;27.51
41690;BME280;27372;42.658;23.256;2023-07-20T14:06:33;93321.56;;;36.49;28.55
41690;BME280;27372;42.658;23.256;2023-07-20T14:09:02;93321.34;;;36.64;28.19
41690;BME280;27372;42.658;23.256;2023-07-20T14:11:28;93308.22;;;36.79;26.87
41690;BME280;27372;42.658;23.256;2023-07-20T14:13:54;93313.28;;;36.53;26.89
41690;BME280;27372;42.658;23.256;2023-07-20T14:16:20;93318.31;;;36.58;27.54
41690;BME280;27372;42.658;23.256;2023-07-20T14:18:46;93323.81;;;37.06;27.39
41690;BME280;27372;42.658;23.256;2023-07-20T14:21:13;93305.13;;;36.77;27.54
41690;BME280;27372;42.658;23.256;2023-07-20T14:23:39;93320.16;;;36.37;28.00
41690;BME280;27372;42.658;23.256;2023-07-20T14:26:04;93293.88;;;36.20;27.92
41690;BME280;27372;42.658;23.256;2023-07-20T14:28:33;93315.44;;;36.42;27.78
41690;BME280;27372;42.658;23.256;2023-07-20T14:31:08;93307.97;;;36.70;27.56
41690;BME280;27372;42.658;23.256;2023-07-20T14:33:33;93320.53;;;36.67;27.63
41690;BME280;27372;42.658;23.256;2023-07-20T14:35:59;93315.09;;;36.09;28.38
41690;BME280;27372;42.658;23.256;2023-07-20T14:38:34;93316.13;;;36.18;28.26
41690;BME280;27372;42.658;23.256;2023-07-20T14:41:01;93328.66;;;36.98;28.07
41690;BME280;27372;42.658;23.256;2023-07-20T14:43:29;93313.44;;;36.70;28.05
41690;BME280;27372;42.658;23.256;2023-07-20T14:46:05;93325.34;;;36.28;29.08
41690;BME280;27372;42.658;23.256;2023-07-20T14:48:40;93319.31;;;36.13;29.22
41690;BME280;27372;42.658;23.256;2023-07-20T14:51:05;93322.53;;;35.73;29.38
41690;BME280;27372;42.658;23.256;2023-07-20T14:53:34;93326.13;;;34.83;31.10
41690;BME280;27372;42.658;23.256;2023-07-20T14:56:28;93323.72;;;35.34;30.37
41690;BME280;27372;42.658;23.256;2023-07-20T14:58:56;93324.41;;;35.45;30.86
41690;BME280;27372;42.658;23.256;2023-07-20T15:01:29;93328.97;;;35.18;30.67
41690;BME280;27372;42.658;23.256;2023-07-20T15:03:56;93325.16;;;35.08;30.91
41690;BME280;27372;42.658;23.256;2023-07-20T15:06:26;93339.03;;;35.24;31.46
41690;BME280;27372;42.658;23.256;2023-07-20T15:08:55;93327.78;;;35.57;31.15
41690;BME280;27372;42.658;23.256;2023-07-20T15:11:30;93338.22;;;35.66;31.38
41690;BME280;27372;42.658;23.256;2023-07-20T15:13:55;93329.97;;;36.04;30.43
41690;BME280;27372;42.658;23.256;2023-07-20T15:16:30;93333.16;;;35.64;31.56
41690;BME280;27372;42.658;23.256;2023-07-20T15:18:56;93343.38;;;35.60;30.63
41690;BME280;27372;42.658;23.256;2023-07-20T15:21:24;93343.00;;;35.93;30.14
41690;BME280;27372;42.658;23.256;2023-07-20T15:23:51;93335.97;;;36.22;29.86
41690;BME280;27372;42.658;23.256;2023-07-20T15:26:16;93346.41;;;36.00;30.51
41690;BME280;27372;42.658;23.256;2023-07-20T15:28:41;93354.09;;;36.09;30.70
41690;BME280;27372;42.658;23.256;2023-07-20T15:31:07;93353.66;;;35.80;31.41
41690;BME280;27372;42.658;23.256;2023-07-20T15:33:32;93357.34;;;34.71;32.64
41690;BME280;27372;42.658;23.256;2023-07-20T15:35:58;93352.91;;;34.43;33.21
41690;BME280;27372;42.658;23.256;2023-07-20T15:38:26;93363.81;;;34.39;33.41
41690;BME280;27372;42.658;23.256;2023-07-20T15:40:51;93357.00;;;34.65;33.02
41690;BME280;27372;42.658;23.256;2023-07-20T15:43:19;93362.97;;;34.49;33.91
41690;BME280;27372;42.658;23.256;2023-07-20T15:45:47;93359.19;;;34.92;32.85
41690;BME280;27372;42.658;23.256;2023-07-20T15:48:17;93368.66;;;34.70;32.82
41690;BME280;27372;42.658;23.256;2023-07-20T15:50:45;93362.53;;;34.55;33.03
41690;BME280;27372;42.658;23.256;2023-07-20T15:53:13;93362.06;;;33.93;33.65
41690;BME280;27372;42.658;23.256;2023-07-20T15:55:38;93360.38;;;34.20;34.04
41690;BME280;27372;42.658;23.256;2023-07-20T15:58:04;93360.38;;;34.20;34.40
41690;BME280;27372;42.658;23.256;2023-07-20T16:00:29;93368.22;;;34.11;33.47
41690;BME280;27372;42.658;23.256;2023-07-20T16:02:55;93374.63;;;33.57;34.42
41690;BME280;27372;42.658;23.256;2023-07-20T16:05:21;93373.09;;;33.42;35.17
41690;BME280;27372;42.658;23.256;2023-07-20T16:07:47;93376.22;;;33.37;35.64
41690;BME280;27372;42.658;23.256;2023-07-20T16:10:12;93381.69;;;32.90;36.51
41690;BME280;27372;42.658;23.256;2023-07-20T16:12:38;93392.56;;;32.93;36.32
41690;BME280;27372;42.658;23.256;2023-07-20T16:15:10;93380.09;;;33.47;35.82
41690;BME280;27372;42.658;23.256;2023-07-20T16:17:36;93390.59;;;33.37;35.97
41690;BME280;27372;42.658;23.256;2023-07-20T16:20:01;93392.16;;;32.84;36.16
41690;BME280;27372;42.658;23.256;2023-07-20T16:22:29;93402.59;;;32.49;36.45
41690;BME280;27372;42.658;23.256;2023-07-20T16:24:57;93395.19;;;32.46;36.14
41690;BME280;27372;42.658;23.256;2023-07-20T16:27:28;93400.94;;;32.23;36.80
41690;BME280;27372;42.658;23.256;2023-07-20T16:30:02;93413.84;;;32.59;36.22
41690;BME280;27372;42.658;23.256;2023-07-20T16:32:33;93402.59;;;32.64;35.71
41690;BME280;27372;42.658;23.256;2023-07-20T16:35:02;93413.47;;;32.67;36.12
41690;BME280;27372;42.658;23.256;2023-07-20T16:37:30;93414.25;;;32.72;35.72
41690;BME280;27372;42.658;23.256;2023-07-20T16:39:55;93421.28;;;33.12;35.30
41690;BME280;27372;42.658;23.256;2023-07-20T16:42:24;93428.97;;;32.56;36.16
41690;BME280;27372;42.658;23.256;2023-07-20T16:44:50;93421.53;;;32.28;36.08
41690;BME280;27372;42.658;23.256;2023-07-20T16:47:17;93429.19;;;32.08;36.98
41690;BME280;27372;42.658;23.256;2023-07-20T16:52:18;93432.28;;;31.39;38.19
41690;BME280;27372;42.658;23.256;2023-07-20T16:54:53;93430.50;;;30.30;39.54
41690;BME280;27372;42.658;23.256;2023-07-20T16:57:18;93428.63;;;30.00;41.02
41690;BME280;27372;42.658;23.256;2023-07-20T16:59:44;93419.19;;;30.55;40.29
41690;BME280;27372;42.658;23.256;2023-07-20T17:02:30;93429.13;;;30.81;40.03
41690;BME280;27372;42.658;23.256;2023-07-20T17:04:56;93441.34;;;31.09;38.95
41690;BME280;27372;42.658;23.256;2023-07-20T17:07:25;93432.59;;;31.27;38.49
41690;BME280;27372;42.658;23.256;2023-07-20T17:09:51;93435.31;;;31.27;38.52
41690;BME280;27372;42.658;23.256;2023-07-20T17:12:16;93430.97;;;31.19;38.68
41690;BME280;27372;42.658;23.256;2023-07-20T17:14:45;93433.53;;;30.21;40.80
41690;BME280;27372;42.658;23.256;2023-07-20T17:17:21;93442.72;;;29.86;42.21
41690;BME280;27372;42.658;23.256;2023-07-20T17:19:55;93441.13;;;29.28;42.11
41690;BME280;27372;42.658;23.256;2023-07-20T17:22:20;93442.06;;;29.93;41.51
41690;BME280;27372;42.658;23.256;2023-07-20T17:24:49;93442.13;;;29.70;42.04
41690;BME280;27372;42.658;23.256;2023-07-20T17:27:17;93441.47;;;29.00;44.25
41690;BME280;27372;42.658;23.256;2023-07-20T17:29:46;93449.53;;;27.94;48.15
41690;BME280;27372;42.658;23.256;2023-07-20T17:32:16;93458.16;;;28.19;48.93
41690;BME280;27372;42.658;23.256;2023-07-20T17:34:48;93464.06;;;28.68;48.05
41690;BME280;27372;42.658;23.256;2023-07-20T17:42:07;93473.59;;;28.03;48.55
41690;BME280;27372;42.658;23.256;2023-07-20T17:44:32;93470.97;;;28.07;49.11
41690;BME280;27372;42.658;23.256;2023-07-20T17:47:06;93479.72;;;27.64;53.42
41690;BME280;27372;42.658;23.256;2023-07-20T17:49:41;93488.28;;;27.50;51.17
41690;BME280;27372;42.658;23.256;2023-07-20T17:52:13;93481.66;;;27.48;49.14
41690;BME280;27372;42.658;23.256;2023-07-20T17:54:59;93474.19;;;27.57;48.06
41690;BME280;27372;42.658;23.256;2023-07-20T17:57:25;93491.56;;;27.59;48.76
41690;BME280;27372;42.658;23.256;2023-07-20T18:00:13;93477.41;;;27.47;50.09
41690;BME280;27372;42.658;23.256;2023-07-20T18:02:52;93478.53;;;26.97;51.03
41690;BME280;27372;42.658;23.256;2023-07-20T18:05:44;93483.88;;;26.37;50.38
41690;BME280;27372;42.658;23.256;2023-07-20T18:08:24;93491.63;;;26.10;51.89
41690;BME280;27372;42.658;23.256;2023-07-20T18:10:51;93494.84;;;26.16;51.52
41690;BME280;27372;42.658;23.256;2023-07-20T18:13:28;93487.81;;;26.11;51.71
41690;BME280;27372;42.658;23.256;2023-07-20T18:15:56;93487.81;;;26.11;51.18
41690;BME280;27372;42.658;23.256;2023-07-20T18:18:25;93490.69;;;26.06;51.40
41690;BME280;27372;42.658;23.256;2023-07-20T18:20:51;93490.41;;;25.95;51.60